sensor_id;sensor_type;location;lat;lon;timestamp;pressure;altitude;pressure_sealevel;temperature;humidity
24788;BME280;12883;52.662;5.196;2023-03-19T00:01:27;100986.75;;;11.40;100.00
24788;BME280;12883;52.662;5.196;2023-03-19T00:03:53;100999.66;;;11.43;100.00
24788;BME280;12883;52.662;5.196;2023-03-19T00:06:18;100985.50;;;11.29;100.00
24788;BME280;12883;52.662;5.196;2023-03-19T00:08:44;101010.91;;;11.45;100.00
24788;BME280;12883;52.662;5.196;2023-03-19T00:11:11;100978.53;;;11.22;100.00
24788;BME280;12883;52.662;5.196;2023-03-19T00:13:37;101002.69;;;11.40;100.00
24788;BME280;12883;52.662;5.196;2023-03-19T00:16:02;101001.47;;;11.36;100.00
24788;BME280;12883;52.662;5.196;2023-03-19T00:18:28;101005.56;;;11.38;100.00
24788;BME280;12883;52.662;5.196;2023-03-19T00:20:53;101014.91;;;11.21;100.00
24788;BME280;12883;52.662;5.196;2023-03-19T00:23:18;101018.22;;;11.30;100.00
24788;BME280;12883;52.662;5.196;2023-03-19T00:25:44;101016.81;;;11.34;100.00
24788;BME280;12883;52.662;5.196;2023-03-19T00:28:09;101021.09;;;11.35;100.00
24788;BME280;12883;52.662;5.196;2023-03-19T00:30:34;101016.41;;;11.37;100.00
24788;BME280;12883;52.662;5.196;2023-03-19T00:33:01;101022.91;;;11.34;100.00
24788;BME280;12883;52.662;5.196;2023-03-19T00:35:27;101010.84;;;11.32;100.00
24788;BME280;12883;52.662;5.196;2023-03-19T00:37:52;101025.63;;;11.41;100.00
24788;BME280;12883;52.662;5.196;2023-03-19T00:40:17;101020.69;;;11.38;100.00
24788;BME280;12883;52.662;5.196;2023-03-19T00:42:43;101026.47;;;11.48;100.00
24788;BME280;12883;52.662;5.196;2023-03-19T00:45:09;101037.06;;;11.41;100.00
24788;BME280;12883;52.662;5.196;2023-03-19T00:47:35;101027.69;;;11.45;100.00
24788;BME280;12883;52.662;5.196;2023-03-19T00:50:01;101038.91;;;11.47;100.00
24788;BME280;12883;52.662;5.196;2023-03-19T00:52:26;101036.06;;;11.49;100.00
24788;BME280;12883;52.662;5.196;2023-03-19T00:54:52;101037.06;;;11.41;100.00
24788;BME280;12883;52.662;5.196;2023-03-19T00:57:17;101039.31;;;11.44;100.00
24788;BME280;12883;52.662;5.196;2023-03-19T00:59:43;101033.19;;;11.44;100.00
24788;BME280;12883;52.662;5.196;2023-03-19T01:02:08;101021.16;;;11.48;100.00
24788;BME280;12883;52.662;5.196;2023-03-19T01:04:33;101029.50;;;11.45;100.00
24788;BME280;12883;52.662;5.196;2023-03-19T01:06:59;101034.03;;;11.51;100.00
24788;BME280;12883;52.662;5.196;2023-03-19T01:09:24;101030.53;;;11.50;100.00
24788;BME280;12883;52.662;5.196;2023-03-19T01:11:50;101034.00;;;11.44;100.00
24788;BME280;12883;52.662;5.196;2023-03-19T01:14:16;101021.94;;;11.42;100.00
24788;BME280;12883;52.662;5.196;2023-03-19T01:16:42;101021.34;;;11.46;100.00
24788;BME280;12883;52.662;5.196;2023-03-19T01:19:07;101024.00;;;11.53;100.00
24788;BME280;12883;52.662;5.196;2023-03-19T01:21:33;101022.97;;;11.54;100.00
24788;BME280;12883;52.662;5.196;2023-03-19T01:23:59;101013.78;;;11.50;100.00
24788;BME280;12883;52.662;5.196;2023-03-19T01:26:25;101024.59;;;11.48;100.00
24788;BME280;12883;52.662;5.196;2023-03-19T01:28:51;101025.22;;;11.50;100.00
24788;BME280;12883;52.662;5.196;2023-03-19T01:31:17;101021.09;;;11.41;100.00
24788;BME280;12883;52.662;5.196;2023-03-19T01:33:42;101032.56;;;11.48;100.00
24788;BME280;12883;52.662;5.196;2023-03-19T01:36:08;101030.09;;;11.47;100.00
24788;BME280;12883;52.662;5.196;2023-03-19T01:38:34;101012.72;;;11.38;100.00
24788;BME280;12883;52.662;5.196;2023-03-19T01:40:59;101022.97;;;11.54;100.00
24788;BME280;12883;52.662;5.196;2023-03-19T01:43:27;101028.91;;;11.49;100.00
24788;BME280;12883;52.662;5.196;2023-03-19T01:45:59;101022.59;;;11.57;100.00
24788;BME280;12883;52.662;5.196;2023-03-19T01:48:40;101016.44;;;11.50;100.00
24788;BME280;12883;52.662;5.196;2023-03-19T01:51:10;101017.03;;;11.45;100.00
24788;BME280;12883;52.662;5.196;2023-03-19T01:53:38;101024.00;;;11.53;100.00
24788;BME280;12883;52.662;5.196;2023-03-19T01:56:22;101023.16;;;11.46;100.00
24788;BME280;12883;52.662;5.196;2023-03-19T01:58:55;101030.53;;;11.50;100.00
24788;BME280;12883;52.662;5.196;2023-03-19T02:01:22;101020.50;;;11.46;100.00
24788;BME280;12883;52.662;5.196;2023-03-19T02:03:49;101008.63;;;11.35;100.00
24788;BME280;12883;52.662;5.196;2023-03-19T02:06:16;101027.69;;;11.52;100.00
24788;BME280;12883;52.662;5.196;2023-03-19T02:08:43;101026.47;;;11.48;100.00
24788;BME280;12883;52.662;5.196;2023-03-19T02:11:09;101024.41;;;11.50;100.00
24788;BME280;12883;52.662;5.196;2023-03-19T02:13:34;101021.56;;;11.51;100.00
24788;BME280;12883;52.662;5.196;2023-03-19T02:16:00;101031.13;;;11.39;100.00
24788;BME280;12883;52.662;5.196;2023-03-19T02:18:26;101029.31;;;11.46;100.00
24788;BME280;12883;52.662;5.196;2023-03-19T02:21:02;101010.84;;;11.32;100.00
24788;BME280;12883;52.662;5.196;2023-03-19T02:26:21;101024.78;;;11.34;100.00
24788;BME280;12883;52.662;5.196;2023-03-19T02:28:48;101036.38;;;11.26;100.00
24788;BME280;12883;52.662;5.196;2023-03-19T02:31:14;101032.28;;;11.24;100.00
24788;BME280;12883;52.662;5.196;2023-03-19T02:33:41;101036.63;;;11.31;100.00
24788;BME280;12883;52.662;5.196;2023-03-19T02:36:10;101032.69;;;11.27;100.00
24788;BME280;12883;52.662;5.196;2023-03-19T02:38:37;101030.41;;;11.11;100.00
24788;BME280;12883;52.662;5.196;2023-03-19T02:41:07;101039.81;;;11.20;100.00
24788;BME280;12883;52.662;5.196;2023-03-19T02:43:34;101037.75;;;11.16;100.00
24788;BME280;12883;52.662;5.196;2023-03-19T02:46:02;101036.69;;;11.04;100.00
24788;BME280;12883;52.662;5.196;2023-03-19T02:48:28;101036.44;;;10.99;100.00
24788;BME280;12883;52.662;5.196;2023-03-19T02:50:54;101049.88;;;10.91;100.00
24788;BME280;12883;52.662;5.196;2023-03-19T02:53:20;101048.81;;;10.85;100.00
24788;BME280;12883;52.662;5.196;2023-03-19T02:55:45;101054.28;;;10.77;100.00
24788;BME280;12883;52.662;5.196;2023-03-19T02:58:11;101048.94;;;10.71;100.00
24788;BME280;12883;52.662;5.196;2023-03-19T03:00:36;101047.28;;;10.70;100.00
24788;BME280;12883;52.662;5.196;2023-03-19T03:03:04;101041.78;;;10.65;100.00
24788;BME280;12883;52.662;5.196;2023-03-19T03:05:31;101038.88;;;10.60;100.00
24788;BME280;12883;52.662;5.196;2023-03-19T03:07:56;101051.38;;;10.66;100.00
24788;BME280;12883;52.662;5.196;2023-03-19T03:10:22;101030.53;;;10.35;100.00
24788;BME280;12883;52.662;5.196;2023-03-19T03:12:47;101041.94;;;10.36;100.00
24788;BME280;12883;52.662;5.196;2023-03-19T03:15:13;101050.56;;;10.44;100.00
24788;BME280;12883;52.662;5.196;2023-03-19T03:17:39;101038.81;;;10.26;100.00
24788;BME280;12883;52.662;5.196;2023-03-19T03:20:08;101053.97;;;10.32;100.00
24788;BME280;12883;52.662;5.196;2023-03-19T03:22:34;101059.19;;;10.25;100.00
24788;BME280;12883;52.662;5.196;2023-03-19T03:25:00;101060.53;;;10.15;100.00
24788;BME280;12883;52.662;5.196;2023-03-19T03:27:25;101056.63;;;10.11;100.00
24788;BME280;12883;52.662;5.196;2023-03-19T03:29:51;101049.75;;;10.02;100.00
24788;BME280;12883;52.662;5.196;2023-03-19T03:32:16;101034.25;;;9.78;100.00
24788;BME280;12883;52.662;5.196;2023-03-19T03:34:42;101049.13;;;10.00;100.00
24788;BME280;12883;52.662;5.196;2023-03-19T03:37:07;101058.22;;;9.91;100.00
24788;BME280;12883;52.662;5.196;2023-03-19T03:39:33;101062.06;;;9.88;100.00
24788;BME280;12883;52.662;5.196;2023-03-19T03:41:58;101060.00;;;9.84;100.00
24788;BME280;12883;52.662;5.196;2023-03-19T03:44:24;101061.63;;;9.85;100.00
24788;BME280;12883;52.662;5.196;2023-03-19T03:46:49;101072.41;;;9.83;100.00
24788;BME280;12883;52.662;5.196;2023-03-19T03:49:14;101070.44;;;9.71;100.00
24788;BME280;12883;52.662;5.196;2023-03-19T03:51:40;101061.88;;;9.69;100.00
24788;BME280;12883;52.662;5.196;2023-03-19T03:54:06;101047.69;;;9.41;100.00
24788;BME280;12883;52.662;5.196;2023-03-19T03:56:31;101061.78;;;9.62;100.00
24788;BME280;12883;52.662;5.196;2023-03-19T03:58:57;101054.78;;;9.55;100.00
24788;BME280;12883;52.662;5.196;2023-03-19T04:01:23;101058.00;;;9.51;100.00
24788;BME280;12883;52.662;5.196;2023-03-19T04:03:48;101055.63;;;9.41;100.00
24788;BME280;12883;52.662;5.196;2023-03-19T04:06:15;101063.03;;;9.31;100.00
24788;BME280;12883;52.662;5.196;2023-03-19T04:08:41;101061.94;;;9.40;100.00
24788;BME280;12883;52.662;5.196;2023-03-19T04:11:07;101071.16;;;9.44;100.00
24788;BME280;12883;52.662;5.196;2023-03-19T04:13:33;101065.41;;;9.41;100.00
24788;BME280;12883;52.662;5.196;2023-03-19T04:16:03;101069.97;;;9.32;100.00
24788;BME280;12883;52.662;5.196;2023-03-19T04:18:28;101066.69;;;9.30;100.00
24788;BME280;12883;52.662;5.196;2023-03-19T04:20:54;101069.06;;;9.25;100.00
24788;BME280;12883;52.662;5.196;2023-03-19T04:23:19;101063.69;;;9.19;100.00
24788;BME280;12883;52.662;5.196;2023-03-19T04:25:44;101071.63;;;9.04;100.00
24788;BME280;12883;52.662;5.196;2023-03-19T04:28:10;101074.19;;;8.98;100.00
24788;BME280;12883;52.662;5.196;2023-03-19T04:30:36;101070.19;;;8.87;100.00
24788;BME280;12883;52.662;5.196;2023-03-19T04:33:02;101073.19;;;8.84;100.00
24788;BME280;12883;52.662;5.196;2023-03-19T04:35:27;101072.19;;;8.85;100.00
24788;BME280;12883;52.662;5.196;2023-03-19T04:37:52;101077.84;;;8.82;100.00
24788;BME280;12883;52.662;5.196;2023-03-19T04:40:18;101078.84;;;8.81;100.00
24788;BME280;12883;52.662;5.196;2023-03-19T04:42:43;101077.66;;;8.98;100.00
24788;BME280;12883;52.662;5.196;2023-03-19T04:45:09;101091.53;;;9.00;100.00
24788;BME280;12883;52.662;5.196;2023-03-19T04:47:34;101088.97;;;9.07;100.00
24788;BME280;12883;52.662;5.196;2023-03-19T04:50:00;101088.53;;;9.03;100.00
24788;BME280;12883;52.662;5.196;2023-03-19T04:52:25;101084.63;;;8.99;100.00
24788;BME280;12883;52.662;5.196;2023-03-19T04:54:50;101098.38;;;8.95;100.00
24788;BME280;12883;52.662;5.196;2023-03-19T04:57:16;101095.53;;;8.96;100.00
24788;BME280;12883;52.662;5.196;2023-03-19T04:59:41;101098.38;;;8.95;100.00
24788;BME280;12883;52.662;5.196;2023-03-19T05:02:07;101109.41;;;8.98;100.00
24788;BME280;12883;52.662;5.196;2023-03-19T05:04:32;101111.34;;;8.90;100.00
24788;BME280;12883;52.662;5.196;2023-03-19T05:06:57;101109.50;;;8.90;100.00
24788;BME280;12883;52.662;5.196;2023-03-19T05:09:23;101113.72;;;8.99;100.00
24788;BME280;12883;52.662;5.196;2023-03-19T05:11:48;101114.91;;;9.11;100.00
24788;BME280;12883;52.662;5.196;2023-03-19T05:14:14;101114.34;;;9.16;100.00
24788;BME280;12883;52.662;5.196;2023-03-19T05:16:39;101116.19;;;9.15;100.00
24788;BME280;12883;52.662;5.196;2023-03-19T05:19:04;101117.91;;;9.23;100.00
24788;BME280;12883;52.662;5.196;2023-03-19T05:21:30;101124.13;;;9.30;100.00
24788;BME280;12883;52.662;5.196;2023-03-19T05:23:55;101117.00;;;9.45;100.00
24788;BME280;12883;52.662;5.196;2023-03-19T05:26:21;101117.47;;;9.48;100.00
24788;BME280;12883;52.662;5.196;2023-03-19T05:28:46;101116.78;;;9.60;100.00
24788;BME280;12883;52.662;5.196;2023-03-19T05:31:12;101112.69;;;9.58;100.00
24788;BME280;12883;52.662;5.196;2023-03-19T05:33:37;101102.81;;;9.52;100.00
24788;BME280;12883;52.662;5.196;2023-03-19T05:36:03;101114.22;;;9.67;100.00
24788;BME280;12883;52.662;5.196;2023-03-19T05:38:28;101115.44;;;9.64;100.00
24788;BME280;12883;52.662;5.196;2023-03-19T05:40:54;101116.84;;;9.67;100.00
24788;BME280;12883;52.662;5.196;2023-03-19T05:43:19;101123.06;;;9.74;100.00
24788;BME280;12883;52.662;5.196;2023-03-19T05:45:49;101074.69;;;9.51;100.00
24788;BME280;12883;52.662;5.196;2023-03-19T05:48:16;101134.31;;;9.76;100.00
24788;BME280;12883;52.662;5.196;2023-03-19T05:50:42;101145.44;;;9.86;100.00
24788;BME280;12883;52.662;5.196;2023-03-19T05:53:07;101140.63;;;9.75;100.00
24788;BME280;12883;52.662;5.196;2023-03-19T05:55:32;101138.03;;;9.81;100.00
24788;BME280;12883;52.662;5.196;2023-03-19T05:57:58;101145.53;;;9.78;100.00
24788;BME280;12883;52.662;5.196;2023-03-19T06:00:23;101147.34;;;9.92;100.00
24788;BME280;12883;52.662;5.196;2023-03-19T06:02:48;101147.91;;;9.87;100.00
24788;BME280;12883;52.662;5.196;2023-03-19T06:05:15;101153.66;;;9.91;100.00
24788;BME280;12883;52.662;5.196;2023-03-19T06:07:40;101167.63;;;9.85;100.00
24788;BME280;12883;52.662;5.196;2023-03-19T06:10:07;101167.63;;;9.85;100.00
24788;BME280;12883;52.662;5.196;2023-03-19T06:12:33;101166.91;;;9.91;100.00
24788;BME280;12883;52.662;5.196;2023-03-19T06:14:58;101170.56;;;9.90;100.00
24788;BME280;12883;52.662;5.196;2023-03-19T06:17:24;101179.97;;;9.92;100.00
24788;BME280;12883;52.662;5.196;2023-03-19T06:19:49;101180.34;;;9.89;100.00
24788;BME280;12883;52.662;5.196;2023-03-19T06:22:14;101175.78;;;9.83;100.00
24788;BME280;12883;52.662;5.196;2023-03-19T06:24:40;101178.41;;;9.83;100.00
24788;BME280;12883;52.662;5.196;2023-03-19T06:27:06;101177.50;;;9.91;100.00
24788;BME280;12883;52.662;5.196;2023-03-19T06:29:31;101177.84;;;9.88;100.00
24788;BME280;12883;52.662;5.196;2023-03-19T06:31:57;101183.25;;;9.94;100.00
24788;BME280;12883;52.662;5.196;2023-03-19T06:34:22;101189.59;;;9.79;100.00
24788;BME280;12883;52.662;5.196;2023-03-19T06:36:47;101195.69;;;9.94;100.00
24788;BME280;12883;52.662;5.196;2023-03-19T06:39:12;101200.63;;;9.82;100.00
24788;BME280;12883;52.662;5.196;2023-03-19T06:41:38;101201.00;;;9.79;100.00
24788;BME280;12883;52.662;5.196;2023-03-19T06:44:04;101202.66;;;9.80;100.00
24788;BME280;12883;52.662;5.196;2023-03-19T06:46:29;101210.44;;;9.82;100.00
24788;BME280;12883;52.662;5.196;2023-03-19T06:48:56;101204.28;;;9.81;100.00
24788;BME280;12883;52.662;5.196;2023-03-19T06:51:22;101218.63;;;9.87;100.00
24788;BME280;12883;52.662;5.196;2023-03-19T06:53:47;101205.25;;;9.95;100.00
24788;BME280;12883;52.662;5.196;2023-03-19T06:56:13;101209.66;;;9.88;100.00
24788;BME280;12883;52.662;5.196;2023-03-19T06:58:38;101185.84;;;9.73;100.00
24788;BME280;12883;52.662;5.196;2023-03-19T07:01:03;101216.34;;;9.84;100.00
24788;BME280;12883;52.662;5.196;2023-03-19T07:03:29;101166.31;;;9.46;100.00
24788;BME280;12883;52.662;5.196;2023-03-19T07:05:55;101227.06;;;9.76;100.00
24788;BME280;12883;52.662;5.196;2023-03-19T07:08:20;101230.41;;;9.84;100.00
24788;BME280;12883;52.662;5.196;2023-03-19T07:10:46;101232.59;;;9.95;100.00
24788;BME280;12883;52.662;5.196;2023-03-19T07:13:11;101233.44;;;9.96;100.00
24788;BME280;12883;52.662;5.196;2023-03-19T07:15:36;101239.56;;;9.96;100.00
24788;BME280;12883;52.662;5.196;2023-03-19T07:18:02;101229.16;;;9.66;100.00
24788;BME280;12883;52.662;5.196;2023-03-19T07:20:28;101248.25;;;9.76;100.00
24788;BME280;12883;52.662;5.196;2023-03-19T07:22:53;101258.13;;;9.82;100.00
24788;BME280;12883;52.662;5.196;2023-03-19T07:25:19;101262.97;;;9.78;100.00
24788;BME280;12883;52.662;5.196;2023-03-19T07:27:45;101266.16;;;9.74;100.00
24788;BME280;12883;52.662;5.196;2023-03-19T07:30:11;101264.88;;;9.70;100.00
24788;BME280;12883;52.662;5.196;2023-03-19T07:32:37;101264.78;;;9.63;100.00
24788;BME280;12883;52.662;5.196;2023-03-19T07:35:04;101275.19;;;9.65;100.00
24788;BME280;12883;52.662;5.196;2023-03-19T07:37:30;101277.56;;;9.60;100.00
24788;BME280;12883;52.662;5.196;2023-03-19T07:39:56;101284.53;;;9.61;100.00
24788;BME280;12883;52.662;5.196;2023-03-19T07:42:21;101279.75;;;9.56;100.00
24788;BME280;12883;52.662;5.196;2023-03-19T07:44:46;101280.59;;;9.57;100.00
24788;BME280;12883;52.662;5.196;2023-03-19T07:47:12;101280.88;;;9.62;100.00
24788;BME280;12883;52.662;5.196;2023-03-19T07:49:37;101287.19;;;9.61;100.00
24788;BME280;12883;52.662;5.196;2023-03-19T07:52:02;101284.16;;;9.64;100.00
24788;BME280;12883;52.662;5.196;2023-03-19T07:54:28;101296.22;;;9.66;100.00
24788;BME280;12883;52.662;5.196;2023-03-19T07:56:54;101292.19;;;9.70;100.00
24788;BME280;12883;52.662;5.196;2023-03-19T07:59:20;101291.84;;;9.73;100.00
24788;BME280;12883;52.662;5.196;2023-03-19T08:01:45;101269.47;;;9.76;100.00
24788;BME280;12883;52.662;5.196;2023-03-19T08:04:10;101306.75;;;9.89;100.00
24788;BME280;12883;52.662;5.196;2023-03-19T08:06:36;101301.44;;;9.89;100.00
24788;BME280;12883;52.662;5.196;2023-03-19T08:09:02;101297.13;;;9.88;100.00
24788;BME280;12883;52.662;5.196;2023-03-19T08:11:28;101311.31;;;9.95;100.00
24788;BME280;12883;52.662;5.196;2023-03-19T08:13:54;101302.09;;;10.05;100.00
24788;BME280;12883;52.662;5.196;2023-03-19T08:16:19;101293.88;;;10.00;100.00
24788;BME280;12883;52.662;5.196;2023-03-19T08:18:45;101311.06;;;10.04;100.00
24788;BME280;12883;52.662;5.196;2023-03-19T08:21:10;101308.22;;;10.06;100.00
24788;BME280;12883;52.662;5.196;2023-03-19T08:23:36;101303.00;;;10.12;100.00
24788;BME280;12883;52.662;5.196;2023-03-19T08:26:01;101306.03;;;10.09;100.00
24788;BME280;12883;52.662;5.196;2023-03-19T08:28:26;101307.97;;;10.15;100.00
24788;BME280;12883;52.662;5.196;2023-03-19T08:30:52;101300.63;;;10.32;100.00
24788;BME280;12883;52.662;5.196;2023-03-19T08:33:17;101302.38;;;10.25;100.00
24788;BME280;12883;52.662;5.196;2023-03-19T08:35:43;101302.81;;;10.28;100.00
24788;BME280;12883;52.662;5.196;2023-03-19T08:38:08;101314.41;;;10.42;100.00
24788;BME280;12883;52.662;5.196;2023-03-19T08:40:35;101329.69;;;10.40;100.00
24788;BME280;12883;52.662;5.196;2023-03-19T08:43:00;101321.28;;;10.36;100.00
24788;BME280;12883;52.662;5.196;2023-03-19T08:45:26;101326.22;;;10.39;100.00
24788;BME280;12883;52.662;5.196;2023-03-19T08:47:51;101324.00;;;10.43;100.00
24788;BME280;12883;52.662;5.196;2023-03-19T08:50:17;101334.09;;;10.47;100.00
24788;BME280;12883;52.662;5.196;2023-03-19T08:52:42;101334.78;;;10.56;100.00
24788;BME280;12883;52.662;5.196;2023-03-19T08:55:09;101331.94;;;10.57;100.00
24788;BME280;12883;52.662;5.196;2023-03-19T08:57:35;101321.75;;;10.40;100.00
24788;BME280;12883;52.662;5.196;2023-03-19T09:00:00;101335.00;;;10.54;100.00
24788;BME280;12883;52.662;5.196;2023-03-19T09:02:26;101335.78;;;10.55;100.00
24788;BME280;12883;52.662;5.196;2023-03-19T09:04:51;101342.38;;;10.59;100.00
24788;BME280;12883;52.662;5.196;2023-03-19T09:07:17;101345.28;;;10.64;100.00
24788;BME280;12883;52.662;5.196;2023-03-19T09:09:43;101347.94;;;10.64;100.00
24788;BME280;12883;52.662;5.196;2023-03-19T09:12:10;101340.38;;;10.61;100.00
24788;BME280;12883;52.662;5.196;2023-03-19T09:14:36;101345.81;;;10.74;100.00
24788;BME280;12883;52.662;5.196;2023-03-19T09:17:02;101319.88;;;10.55;100.00
24788;BME280;12883;52.662;5.196;2023-03-19T09:19:28;101359.81;;;10.82;100.00
24788;BME280;12883;52.662;5.196;2023-03-19T09:21:53;101373.28;;;10.81;100.00
24788;BME280;12883;52.662;5.196;2023-03-19T09:24:18;101364.00;;;10.91;100.00
24788;BME280;12883;52.662;5.196;2023-03-19T09:26:44;101335.22;;;10.74;100.00
24788;BME280;12883;52.662;5.196;2023-03-19T09:29:10;101368.59;;;10.83;100.00
24788;BME280;12883;52.662;5.196;2023-03-19T09:31:36;101366.81;;;10.90;100.00
24788;BME280;12883;52.662;5.196;2023-03-19T09:34:02;101366.47;;;10.93;100.00
24788;BME280;12883;52.662;5.196;2023-03-19T09:36:27;101367.97;;;10.81;100.00
24788;BME280;12883;52.662;5.196;2023-03-19T09:38:52;101382.41;;;10.93;100.00
24788;BME280;12883;52.662;5.196;2023-03-19T09:49:34;101396.56;;;11.00;100.00
24788;BME280;12883;52.662;5.196;2023-03-19T09:52:19;101402.13;;;11.05;100.00
24788;BME280;12883;52.662;5.196;2023-03-19T09:54:50;101404.31;;;11.16;100.00
24788;BME280;12883;52.662;5.196;2023-03-19T09:57:17;101402.03;;;11.13;100.00
24788;BME280;12883;52.662;5.196;2023-03-19T09:59:43;101411.09;;;11.04;100.00
24788;BME280;12883;52.662;5.196;2023-03-19T10:10:35;101411.13;;;11.25;100.00
24788;BME280;12883;52.662;5.196;2023-03-19T10:15:31;101413.44;;;11.28;100.00
24788;BME280;12883;52.662;5.196;2023-03-19T10:18:53;101408.47;;;11.25;100.00
24788;BME280;12883;52.662;5.196;2023-03-19T10:20:57;101411.97;;;11.25;100.00
24788;BME280;12883;52.662;5.196;2023-03-19T10:26:18;101416.91;;;11.49;100.00
24788;BME280;12883;52.662;5.196;2023-03-19T10:28:48;101420.56;;;11.48;100.00
24788;BME280;12883;52.662;5.196;2023-03-19T10:34:28;101419.63;;;11.56;100.00
24788;BME280;12883;52.662;5.196;2023-03-19T10:37:04;101425.66;;;11.64;100.00
24788;BME280;12883;52.662;5.196;2023-03-19T10:39:32;101401.09;;;11.62;100.00
24788;BME280;12883;52.662;5.196;2023-03-19T10:44:32;101427.88;;;11.61;100.00
24788;BME280;12883;52.662;5.196;2023-03-19T10:47:09;101434.13;;;11.53;100.00
24788;BME280;12883;52.662;5.196;2023-03-19T10:49:35;101435.94;;;11.53;100.00
24788;BME280;12883;52.662;5.196;2023-03-19T10:52:01;101436.59;;;11.55;100.00
24788;BME280;12883;52.662;5.196;2023-03-19T10:54:27;101433.69;;;11.50;100.00
24788;BME280;12883;52.662;5.196;2023-03-19T10:56:56;101438.22;;;11.56;100.00
24788;BME280;12883;52.662;5.196;2023-03-19T11:02:01;101443.28;;;11.51;100.00
24788;BME280;12883;52.662;5.196;2023-03-19T11:04:27;101448.78;;;11.49;100.00
24788;BME280;12883;52.662;5.196;2023-03-19T11:07:09;101451.53;;;11.56;100.00
24788;BME280;12883;52.662;5.196;2023-03-19T11:09:37;101436.59;;;11.55;100.00
24788;BME280;12883;52.662;5.196;2023-03-19T11:12:13;101451.44;;;11.64;100.00
24788;BME280;12883;52.662;5.196;2023-03-19T11:14:41;101443.56;;;11.56;100.00
24788;BME280;12883;52.662;5.196;2023-03-19T11:17:46;101459.50;;;11.56;100.00
24788;BME280;12883;52.662;5.196;2023-03-19T11:20:21;101457.22;;;11.74;100.00
24788;BME280;12883;52.662;5.196;2023-03-19T11:22:50;101455.91;;;11.84;100.00
24788;BME280;12883;52.662;5.196;2023-03-19T11:27:49;101463.06;;;11.84;100.00
24788;BME280;12883;52.662;5.196;2023-03-19T11:30:21;101452.44;;;11.84;100.00
24788;BME280;12883;52.662;5.196;2023-03-19T11:35:50;101459.06;;;11.94;100.00
24788;BME280;12883;52.662;5.196;2023-03-19T11:38:38;101453.75;;;11.94;100.00
24788;BME280;12883;52.662;5.196;2023-03-19T11:44:07;101444.75;;;11.95;100.00
24788;BME280;12883;52.662;5.196;2023-03-19T11:52:21;101450.72;;;12.25;100.00
24788;BME280;12883;52.662;5.196;2023-03-19T11:57:28;101454.72;;;12.14;100.00
24788;BME280;12883;52.662;5.196;2023-03-19T12:05:31;101438.66;;;12.01;100.00
24788;BME280;12883;52.662;5.196;2023-03-19T12:24:47;101477.94;;;12.27;100.00
24788;BME280;12883;52.662;5.196;2023-03-19T12:27:38;101471.59;;;12.28;100.00
24788;BME280;12883;52.662;5.196;2023-03-19T12:30:37;101489.34;;;12.21;100.00
24788;BME280;12883;52.662;5.196;2023-03-19T12:33:43;101485.94;;;12.27;100.00
24788;BME280;12883;52.662;5.196;2023-03-19T12:36:24;101475.69;;;12.24;100.00
24788;BME280;12883;52.662;5.196;2023-03-19T12:39:46;101492.50;;;12.31;100.00
24788;BME280;12883;52.662;5.196;2023-03-19T12:41:45;101485.16;;;12.33;100.00
24788;BME280;12883;52.662;5.196;2023-03-19T12:46:47;101485.59;;;12.36;100.00
24788;BME280;12883;52.662;5.196;2023-03-19T12:49:30;101493.91;;;12.27;100.00
24788;BME280;12883;52.662;5.196;2023-03-19T12:55:12;101500.69;;;12.29;100.00
24788;BME280;12883;52.662;5.196;2023-03-19T12:58:01;101490.34;;;12.13;100.00
24788;BME280;12883;52.662;5.196;2023-03-19T13:05:46;101518.91;;;12.32;100.00
24788;BME280;12883;52.662;5.196;2023-03-19T13:08:28;101517.91;;;12.33;100.00
24788;BME280;12883;52.662;5.196;2023-03-19T13:10:57;101512.03;;;12.38;100.00
24788;BME280;12883;52.662;5.196;2023-03-19T13:13:48;101514.25;;;12.34;100.00
24788;BME280;12883;52.662;5.196;2023-03-19T13:16:31;101516.69;;;12.36;100.00
24788;BME280;12883;52.662;5.196;2023-03-19T13:21:32;101519.63;;;12.47;100.00
24788;BME280;12883;52.662;5.196;2023-03-19T13:24:05;101524.31;;;12.39;100.00
24788;BME280;12883;52.662;5.196;2023-03-19T13:26:35;101538.22;;;12.41;100.00
24788;BME280;12883;52.662;5.196;2023-03-19T13:29:22;101539.28;;;12.46;100.00
24788;BME280;12883;52.662;5.196;2023-03-19T13:31:49;101536.19;;;12.43;100.00
24788;BME280;12883;52.662;5.196;2023-03-19T13:36:42;101530.84;;;12.36;100.00
24788;BME280;12883;52.662;5.196;2023-03-19T13:39:15;101535.13;;;12.37;100.00
24788;BME280;12883;52.662;5.196;2023-03-19T13:55:33;101534.69;;;12.34;100.00
24788;BME280;12883;52.662;5.196;2023-03-19T14:03:20;101547.81;;;12.35;100.00
24788;BME280;12883;52.662;5.196;2023-03-19T14:05:47;101550.66;;;12.34;100.00
24788;BME280;12883;52.662;5.196;2023-03-19T14:08:20;101570.50;;;12.31;100.00
24788;BME280;12883;52.662;5.196;2023-03-19T14:10:48;101573.22;;;12.38;100.00
24788;BME280;12883;52.662;5.196;2023-03-19T14:13:32;101579.25;;;12.25;100.00
24788;BME280;12883;52.662;5.196;2023-03-19T14:16:18;101582.59;;;12.34;100.00
24788;BME280;12883;52.662;5.196;2023-03-19T14:18:46;101572.72;;;12.28;100.00
24788;BME280;12883;52.662;5.196;2023-03-19T14:24:35;101571.84;;;12.21;100.00
24788;BME280;12883;52.662;5.196;2023-03-19T14:27:03;101549.81;;;12.06;100.00
24788;BME280;12883;52.662;5.196;2023-03-19T14:29:41;101580.25;;;12.24;100.00
24788;BME280;12883;52.662;5.196;2023-03-19T14:32:12;101569.00;;;12.22;100.00
24788;BME280;12883;52.662;5.196;2023-03-19T14:34:41;101570.63;;;12.23;100.00
24788;BME280;12883;52.662;5.196;2023-03-19T14:39:58;101572.16;;;12.11;100.00